createdAt,value
2023-01-07T00:02:56.386Z,98325.75
2023-01-07T00:07:13.988Z,98311.66
2023-01-07T00:11:36.829Z,98317.50
2023-01-07T00:16:08.513Z,98329.63
2023-01-07T00:20:25.961Z,98325.00
2023-01-07T00:24:43.494Z,98323.81
2023-01-07T00:29:01.445Z,98331.16
2023-01-07T00:33:20.164Z,98336.38
2023-01-07T00:37:51.486Z,98322.47
2023-01-07T00:42:28.085Z,98328.38
2023-01-07T00:46:45.771Z,98338.88
2023-01-07T00:51:03.340Z,98342.19
2023-01-07T00:55:22.146Z,98349.91
2023-01-07T00:59:39.812Z,98349.56
2023-01-07T01:03:57.454Z,98348.72
2023-01-07T01:08:15.159Z,98354.94
2023-01-07T01:12:32.558Z,98354.13
2023-01-07T01:16:50.383Z,98357.63
2023-01-07T01:21:11.401Z,98361.88
2023-01-07T01:25:28.539Z,98362.91
2023-01-07T01:29:46.669Z,98365.50
2023-01-07T01:34:04.366Z,98352.75
2023-01-07T01:38:22.173Z,98360.84
2023-01-07T01:42:39.328Z,98373.56
2023-01-07T01:46:57.091Z,98371.97
2023-01-07T01:51:17.553Z,98372.56
2023-01-07T01:55:42.961Z,98372.16
2023-01-07T02:00:00.919Z,98369.13
2023-01-07T02:04:22.410Z,98368.66
2023-01-07T02:08:39.856Z,98373.38
2023-01-07T02:13:17.530Z,98372.94
2023-01-07T02:17:51.443Z,98371.31
2023-01-07T02:22:50.950Z,98373.28
2023-01-07T02:27:20.889Z,98382.06
2023-01-07T02:31:50.475Z,98387.28
2023-01-07T02:36:51.770Z,98380.66
2023-01-07T02:41:56.208Z,98385.81
2023-01-07T02:46:57.816Z,98379.69
2023-01-07T02:51:15.311Z,98376.66
2023-01-07T02:56:05.912Z,98369.19
2023-01-07T03:00:40.307Z,98381.59
2023-01-07T03:05:13.469Z,98376.78
2023-01-07T03:09:58.255Z,98372.41
2023-01-07T03:14:34.913Z,98386.75
2023-01-07T03:19:12.398Z,98392.28
2023-01-07T03:23:31.380Z,98385.34
2023-01-07T03:27:52.580Z,98393.22
2023-01-07T03:32:24.628Z,98391.63
2023-01-07T03:36:49.253Z,98394.03
2023-01-07T03:41:06.462Z,98384.72
2023-01-07T03:45:26.638Z,98375.84
2023-01-07T03:49:44.081Z,98377.97
2023-01-07T03:54:01.557Z,98381.00
2023-01-07T03:58:19.282Z,98392.88
2023-01-07T04:02:37.203Z,98397.84
2023-01-07T04:06:54.433Z,98394.44
2023-01-07T04:11:12.182Z,98396.72
2023-01-07T04:15:29.652Z,98403.38
2023-01-07T04:19:47.950Z,98396.53
2023-01-07T04:24:05.800Z,98393.97
2023-01-07T04:28:23.528Z,98395.13
2023-01-07T04:32:41.159Z,98392.81
2023-01-07T04:36:58.754Z,98387.47
2023-01-07T04:41:16.401Z,98387.75
2023-01-07T04:45:34.090Z,98396.59
2023-01-07T04:49:51.814Z,98395.81
2023-01-07T04:54:09.341Z,98401.31
2023-01-07T04:58:26.581Z,98401.81
2023-01-07T05:02:44.040Z,98410.16
2023-01-07T05:07:02.442Z,98403.25
2023-01-07T05:11:23.018Z,98412.75
2023-01-07T05:15:40.787Z,98411.75
2023-01-07T05:19:58.491Z,98412.22
2023-01-07T05:24:16.321Z,98420.66
2023-01-07T05:28:33.845Z,98422.53
2023-01-07T05:32:51.551Z,98432.06
2023-01-07T05:37:09.156Z,98426.59
2023-01-07T05:41:26.915Z,98425.44
2023-01-07T05:45:46.313Z,98429.50
2023-01-07T05:50:04.448Z,98435.44
2023-01-07T05:54:22.154Z,98426.22
2023-01-07T05:58:39.634Z,98428.38
2023-01-07T06:02:57.313Z,98427.38
2023-01-07T06:07:14.938Z,98427.06
2023-01-07T06:11:32.643Z,98433.00
2023-01-07T06:15:50.539Z,98423.56
2023-01-07T06:20:09.568Z,98418.06
2023-01-07T06:24:27.078Z,98424.63
2023-01-07T06:28:44.623Z,98427.91
2023-01-07T06:33:02.315Z,98445.22
2023-01-07T06:37:19.642Z,98435.50
2023-01-07T06:41:37.127Z,98444.31
2023-01-07T06:45:55.223Z,98436.94
2023-01-07T06:50:12.980Z,98432.28
2023-01-07T06:54:30.503Z,98431.31
2023-01-07T06:58:48.137Z,98439.34
2023-01-07T07:03:05.943Z,98447.25
2023-01-07T07:07:23.399Z,98442.38
2023-01-07T07:11:41.078Z,98437.34
2023-01-07T07:15:58.607Z,98429.00
2023-01-07T07:20:17.984Z,98438.16
2023-01-07T07:24:35.709Z,98438.91
2023-01-07T07:28:53.446Z,98448.56
2023-01-07T07:33:12.679Z,98450.00
2023-01-07T07:37:30.389Z,98447.09
2023-01-07T07:41:47.842Z,98448.41
2023-01-07T07:46:05.975Z,98450.97
2023-01-07T07:50:23.529Z,98462.47
2023-01-07T07:54:41.151Z,98463.56
2023-01-07T07:58:58.649Z,98452.81
2023-01-07T08:03:16.992Z,98460.19
2023-01-07T08:07:35.736Z,98467.06
2023-01-07T08:11:55.245Z,98455.19
2023-01-07T08:16:12.800Z,98468.31
2023-01-07T08:20:33.488Z,98465.88
2023-01-07T08:24:50.945Z,98462.41
2023-01-07T08:29:09.155Z,98453.78
2023-01-07T08:33:26.911Z,98467.56
2023-01-07T08:37:44.601Z,98460.34
2023-01-07T08:42:02.350Z,98472.63
2023-01-07T08:46:20.168Z,98462.31
2023-01-07T08:50:37.731Z,98467.47
2023-01-07T08:54:55.268Z,98470.50
2023-01-07T08:59:13.081Z,98475.81
2023-01-07T09:03:30.632Z,98482.41
2023-01-07T09:07:53.566Z,98479.94
2023-01-07T09:12:11.359Z,98477.06
2023-01-07T09:16:29.242Z,98471.84
2023-01-07T09:20:46.873Z,98485.72
2023-01-07T09:25:06.149Z,98483.31
2023-01-07T09:29:23.669Z,98488.94
2023-01-07T09:33:41.536Z,98499.72
2023-01-07T09:37:59.111Z,98486.25
2023-01-07T09:42:33.798Z,98483.84
2023-01-07T09:46:53.607Z,98471.38
2023-01-07T09:51:39.055Z,98506.72
2023-01-07T09:56:11.176Z,98477.25
2023-01-07T10:00:34.547Z,98470.69
2023-01-07T10:05:39.339Z,98464.16
2023-01-07T10:10:29.285Z,98460.38
2023-01-07T10:15:16.292Z,98455.00
2023-01-07T10:20:05.074Z,98445.59
2023-01-07T10:24:32.544Z,98430.00
2023-01-07T10:29:05.345Z,98447.97
2023-01-07T10:33:31.158Z,98436.00
2023-01-07T10:37:49.001Z,98433.31
2023-01-07T10:42:28.422Z,98444.28
2023-01-07T10:47:08.913Z,98435.63
2023-01-07T10:52:19.194Z,98427.25
2023-01-07T10:56:43.304Z,98420.16
2023-01-07T11:01:00.850Z,98423.47
2023-01-07T11:05:21.427Z,98426.97
2023-01-07T11:09:44.008Z,98411.06
2023-01-07T11:14:12.678Z,98432.00
2023-01-07T11:18:39.527Z,98410.47
2023-01-07T11:23:44.013Z,98416.25
2023-01-07T11:34:01.350Z,98410.66
2023-01-07T11:38:47.304Z,98428.16
2023-01-07T11:43:22.756Z,98427.13
2023-01-07T11:47:48.801Z,98443.28
2023-01-07T11:52:06.166Z,98401.00
2023-01-07T11:56:29.023Z,98402.91
2023-01-07T12:00:46.805Z,98402.22
2023-01-07T12:05:26.512Z,98439.16
2023-01-07T12:09:46.133Z,98401.13
2023-01-07T12:14:19.007Z,98379.44
2023-01-07T12:18:55.746Z,98371.59
2023-01-07T12:23:30.823Z,98362.59
2023-01-07T12:28:13.272Z,98356.78
2023-01-07T12:32:53.288Z,98359.41
2023-01-07T12:37:57.695Z,98376.03
2023-01-07T12:42:24.790Z,98360.66
2023-01-07T12:47:31.154Z,98387.03
2023-01-07T12:52:27.609Z,98375.53
2023-01-07T12:56:55.651Z,98362.38
2023-01-07T13:01:42.311Z,98343.44
2023-01-07T13:06:22.168Z,98369.13
2023-01-07T13:10:49.493Z,98348.69
2023-01-07T13:15:29.952Z,98341.91
2023-01-07T13:19:47.742Z,98346.38
2023-01-07T13:24:56.389Z,98354.25
2023-01-07T13:29:25.230Z,98348.31
2023-01-07T13:34:10.652Z,98343.50
2023-01-07T13:38:40.205Z,98339.59
2023-01-07T13:43:04.421Z,98331.75
2023-01-07T13:47:26.513Z,98325.53
2023-01-07T13:51:43.722Z,98326.06
2023-01-07T13:56:19.916Z,98317.91
2023-01-07T14:01:35.688Z,98313.69
2023-01-07T14:06:21.485Z,98317.25
2023-01-07T14:10:39.645Z,98298.97
2023-01-07T14:15:36.593Z,98289.28
2023-01-07T14:20:14.769Z,98277.53
2023-01-07T14:24:57.418Z,98274.84
2023-01-07T14:29:48.797Z,98272.03
2023-01-07T14:34:17.446Z,98276.72
2023-01-07T14:38:35.934Z,98283.13
2023-01-07T14:42:54.390Z,98276.81
2023-01-07T14:47:12.415Z,98269.06
2023-01-07T14:51:46.376Z,98258.97
2023-01-07T14:56:37.955Z,98255.94
2023-01-07T15:01:29.885Z,98254.97
2023-01-07T15:06:21.257Z,98242.78
2023-01-07T15:10:59.218Z,98236.47
2023-01-07T15:15:53.372Z,98238.28
2023-01-07T15:20:12.600Z,98223.34
2023-01-07T15:25:17.880Z,98228.38
2023-01-07T15:30:32.743Z,98235.22
2023-01-07T15:34:50.301Z,98224.75
2023-01-07T15:39:34.034Z,98230.97
2023-01-07T15:43:52.472Z,98235.31
2023-01-07T15:48:13.290Z,98230.31
2023-01-07T15:52:30.882Z,98220.53
2023-01-07T15:56:50.159Z,98219.28
2023-01-07T16:01:25.255Z,98219.97
2023-01-07T16:05:43.784Z,98218.50
2023-01-07T16:10:01.785Z,98229.84
2023-01-07T16:14:25.052Z,98222.22
2023-01-07T16:18:57.941Z,98219.28
2023-01-07T16:23:23.014Z,98225.88
2023-01-07T16:27:40.534Z,98214.84
2023-01-07T16:31:59.647Z,98212.91
2023-01-07T16:36:28.638Z,98210.59
2023-01-07T16:40:48.300Z,98210.78
2023-01-07T16:45:27.048Z,98212.38
2023-01-07T16:49:46.044Z,98204.03
2023-01-07T16:54:23.048Z,98201.47
2023-01-07T16:58:48.773Z,98206.78
2023-01-07T17:03:06.670Z,98200.81
2023-01-07T17:07:26.538Z,98202.78
2023-01-07T17:11:44.053Z,98202.78
2023-01-07T17:16:27.982Z,98197.00
2023-01-07T17:20:50.210Z,98187.84
2023-01-07T17:25:20.098Z,98193.00
2023-01-07T17:29:39.657Z,98193.97
2023-01-07T17:33:56.741Z,98194.31
2023-01-07T17:38:16.530Z,98199.66
2023-01-07T17:42:53.933Z,98195.16
2023-01-07T17:47:12.166Z,98193.38
2023-01-07T17:51:30.200Z,98196.09
2023-01-07T17:55:48.033Z,98201.09
2023-01-07T18:00:06.682Z,98192.13
2023-01-07T18:04:24.486Z,98192.91
2023-01-07T18:08:42.167Z,98189.53
2023-01-07T18:12:59.859Z,98191.66
2023-01-07T18:17:17.435Z,98196.00
2023-01-07T18:21:34.754Z,98193.44
2023-01-07T18:25:52.561Z,98200.00
2023-01-07T18:30:17.781Z,98193.59
2023-01-07T18:34:35.511Z,98192.66
2023-01-07T18:38:53.588Z,98186.53
2023-01-07T18:43:18.495Z,98199.72
2023-01-07T18:47:36.428Z,98186.34
2023-01-07T18:51:53.967Z,98182.50
2023-01-07T18:56:13.499Z,98186.84
2023-01-07T19:00:31.187Z,98172.41
2023-01-07T19:04:49.876Z,98182.84
2023-01-07T19:09:07.696Z,98171.50
2023-01-07T19:13:25.412Z,98182.25
2023-01-07T19:17:42.958Z,98184.00
2023-01-07T19:22:01.511Z,98178.06
2023-01-07T19:26:19.387Z,98187.03
2023-01-07T19:30:37.096Z,98192.69
2023-01-07T19:34:54.907Z,98176.44
2023-01-07T19:39:15.494Z,98176.63
2023-01-07T19:43:33.326Z,98178.88
2023-01-07T19:47:51.332Z,98176.81
2023-01-07T19:52:09.159Z,98175.19
2023-01-07T19:56:27.380Z,98166.06
2023-01-07T20:00:45.295Z,98164.63
2023-01-07T20:05:02.817Z,98166.41
2023-01-07T20:09:20.951Z,98160.47
2023-01-07T20:13:40.260Z,98154.00
2023-01-07T20:17:58.218Z,98153.91
2023-01-07T20:22:15.909Z,98150.81
2023-01-07T20:26:35.583Z,98163.06
2023-01-07T20:30:53.178Z,98152.84
2023-01-07T20:35:10.993Z,98145.38
2023-01-07T20:39:29.029Z,98139.78
2023-01-07T20:44:01.193Z,98139.00
2023-01-07T20:48:19.515Z,98140.59
2023-01-07T20:52:37.171Z,98134.03
2023-01-07T20:56:55.118Z,98126.31
2023-01-07T21:01:16.483Z,98132.06
2023-01-07T21:05:38.067Z,98128.88
2023-01-07T21:09:55.847Z,98129.03
2023-01-07T21:14:13.487Z,98130.03
2023-01-07T21:18:32.532Z,98120.53
2023-01-07T21:22:50.286Z,98122.94
2023-01-07T21:27:07.918Z,98127.97
2023-01-07T21:31:27.115Z,98123.75
2023-01-07T21:35:44.822Z,98123.91
2023-01-07T21:40:02.702Z,98115.25
2023-01-07T21:44:20.385Z,98114.31
2023-01-07T21:48:41.084Z,98119.63
2023-01-07T21:52:58.911Z,98116.25
2023-01-07T21:57:16.634Z,98111.31
2023-01-07T22:01:35.158Z,98112.28
2023-01-07T22:06:00.331Z,98118.03
2023-01-07T22:10:17.691Z,98102.00
2023-01-07T22:14:35.161Z,98101.47
2023-01-07T22:18:53.297Z,98094.72
2023-01-07T22:23:19.519Z,98100.31
2023-01-07T22:27:37.156Z,98099.06
2023-01-07T22:31:54.878Z,98099.25
2023-01-07T22:36:17.506Z,98094.56
2023-01-07T22:40:37.463Z,98088.63
2023-01-07T22:45:04.387Z,98084.06
2023-01-07T22:49:26.969Z,98083.28
2023-01-07T22:53:50.427Z,98067.84
2023-01-07T22:58:08.291Z,98044.91
2023-01-07T23:02:26.063Z,98042.00
2023-01-07T23:06:43.698Z,98040.56
2023-01-07T23:11:01.359Z,98039.22
2023-01-07T23:15:18.528Z,98036.38
2023-01-07T23:19:36.242Z,98018.03
2023-01-07T23:23:54.001Z,98014.31
2023-01-07T23:28:11.474Z,98013.97
2023-01-07T23:32:28.983Z,98007.22
2023-01-07T23:36:46.692Z,98005.25
2023-01-07T23:41:08.035Z,98013.97
2023-01-07T23:45:25.354Z,98003.50
2023-01-07T23:49:42.850Z,98006.41
2023-01-07T23:54:00.804Z,98000.47
2023-01-07T23:58:19.129Z,97994.19
